createdAt,value
2018-12-26T00:02:17.294Z,2.93
2018-12-26T00:04:46.066Z,2.97
2018-12-26T00:07:14.833Z,3.00
2018-12-26T00:09:43.673Z,3.20
2018-12-26T00:12:12.415Z,2.90
2018-12-26T00:14:41.187Z,3.03
2018-12-26T00:17:09.954Z,2.40
2018-12-26T00:19:38.759Z,2.93
2018-12-26T00:22:07.773Z,2.60
2018-12-26T00:24:36.540Z,2.70
2018-12-26T00:27:05.274Z,3.10
2018-12-26T00:29:34.179Z,2.70
2018-12-26T00:32:03.267Z,3.00
2018-12-26T00:34:32.025Z,2.77
2018-12-26T00:37:00.781Z,3.07
2018-12-26T00:39:29.623Z,2.90
2018-12-26T00:41:58.399Z,2.97
2018-12-26T00:44:27.149Z,3.30
2018-12-26T00:46:55.973Z,3.00
2018-12-26T00:49:24.739Z,3.03
2018-12-26T00:51:53.502Z,3.00
2018-12-26T00:54:22.258Z,2.60
2018-12-26T00:56:51.031Z,3.10
2018-12-26T00:59:19.795Z,2.80
2018-12-26T01:01:48.552Z,3.00
2018-12-26T01:04:17.316Z,2.77
2018-12-26T01:06:46.062Z,2.70
2018-12-26T01:09:14.888Z,2.80
2018-12-26T01:11:43.647Z,2.93
2018-12-26T01:14:12.424Z,2.57
2018-12-26T01:16:41.169Z,2.83
2018-12-26T01:19:09.940Z,3.10
2018-12-26T01:21:38.706Z,2.97
2018-12-26T01:24:07.476Z,2.63
2018-12-26T01:26:36.231Z,2.90
2018-12-26T01:29:04.980Z,2.80
2018-12-26T01:31:33.759Z,2.80
2018-12-26T01:34:02.511Z,2.83
2018-12-26T01:36:31.301Z,2.80
2018-12-26T01:39:00.068Z,2.50
2018-12-26T01:41:28.938Z,3.00
2018-12-26T01:43:57.688Z,2.47
2018-12-26T01:46:26.451Z,2.70
2018-12-26T01:48:55.204Z,2.70
2018-12-26T01:51:23.933Z,2.47
2018-12-26T01:53:53.559Z,2.57
2018-12-26T01:56:27.964Z,3.00
2018-12-26T01:58:52.787Z,2.43
2018-12-26T02:01:21.532Z,3.00
2018-12-26T02:03:50.307Z,2.83
2018-12-26T02:06:19.151Z,2.63
2018-12-26T02:08:47.963Z,2.60
2018-12-26T02:11:16.751Z,2.40
2018-12-26T02:13:45.494Z,2.60
2018-12-26T02:16:14.239Z,2.90
2018-12-26T02:18:42.997Z,2.70
2018-12-26T02:21:11.816Z,2.93
2018-12-26T02:23:40.576Z,2.80
2018-12-26T02:26:09.334Z,3.13
2018-12-26T02:28:38.122Z,2.83
2018-12-26T02:31:06.882Z,2.50
2018-12-26T02:33:35.632Z,2.60
2018-12-26T02:36:04.433Z,2.97
2018-12-26T02:38:33.158Z,2.93
2018-12-26T02:41:01.945Z,2.70
2018-12-26T02:43:30.692Z,3.07
2018-12-26T02:45:59.430Z,2.83
2018-12-26T02:48:28.214Z,2.60
2018-12-26T02:50:56.944Z,2.80
2018-12-26T02:53:25.801Z,2.90
2018-12-26T02:55:54.589Z,2.83
2018-12-26T02:58:23.342Z,2.80
2018-12-26T03:00:52.102Z,2.70
2018-12-26T03:03:20.850Z,2.90
2018-12-26T03:05:49.614Z,2.87
2018-12-26T03:08:18.359Z,2.87
2018-12-26T03:10:47.117Z,2.83
2018-12-26T03:13:15.875Z,2.90
2018-12-26T03:15:44.703Z,2.53
2018-12-26T03:18:13.454Z,3.07
2018-12-26T03:20:42.927Z,2.80
2018-12-26T03:23:11.652Z,2.70
2018-12-26T03:25:40.404Z,3.17
2018-12-26T03:28:09.146Z,2.67
2018-12-26T03:30:37.902Z,2.90
2018-12-26T03:33:06.625Z,3.00
2018-12-26T03:35:35.373Z,3.47
2018-12-26T03:38:04.127Z,3.07
2018-12-26T03:40:32.879Z,2.90
2018-12-26T03:43:01.638Z,3.10
2018-12-26T03:45:30.387Z,2.60
2018-12-26T03:47:59.116Z,3.13
2018-12-26T03:50:27.863Z,3.50
2018-12-26T03:52:56.634Z,3.30
2018-12-26T03:55:25.391Z,3.20
2018-12-26T03:57:54.111Z,2.93
2018-12-26T04:00:22.849Z,3.30
2018-12-26T04:02:51.595Z,3.03
2018-12-26T04:05:20.408Z,3.00
2018-12-26T04:07:49.163Z,3.20
2018-12-26T04:10:17.931Z,3.30
2018-12-26T04:12:46.858Z,2.93
2018-12-26T04:15:15.706Z,3.13
2018-12-26T04:17:44.533Z,3.00
2018-12-26T04:20:13.300Z,3.47
2018-12-26T04:22:42.147Z,3.30
2018-12-26T04:25:10.974Z,3.20
2018-12-26T04:27:39.768Z,3.07
2018-12-26T04:30:09.309Z,3.30
2018-12-26T04:32:38.077Z,3.00
2018-12-26T04:35:06.963Z,3.50
2018-12-26T04:37:35.723Z,3.27
2018-12-26T04:40:05.302Z,3.37
2018-12-26T04:42:34.084Z,4.50
2018-12-26T04:45:02.925Z,5.00
2018-12-26T04:47:31.723Z,5.53
2018-12-26T04:50:00.502Z,9.10
2018-12-26T04:52:29.286Z,8.90
2018-12-26T04:54:58.087Z,7.70
2018-12-26T04:57:26.918Z,17.67
2018-12-26T04:59:55.688Z,12.00
2018-12-26T05:02:24.450Z,12.57
2018-12-26T05:04:53.246Z,18.07
2018-12-26T05:07:22.062Z,15.40
2018-12-26T05:09:50.884Z,18.47
2018-12-26T05:12:19.702Z,15.40
2018-12-26T05:14:48.547Z,18.40
2018-12-26T05:17:17.295Z,15.40
2018-12-26T05:19:46.060Z,15.77
2018-12-26T05:22:15.009Z,19.97
2018-12-26T05:24:43.858Z,19.23
2018-12-26T05:27:12.605Z,18.47
2018-12-26T05:29:41.452Z,16.87
2018-12-26T05:32:10.226Z,18.73
2018-12-26T05:34:39.066Z,20.57
2018-12-26T05:37:07.810Z,16.70
2018-12-26T05:39:36.786Z,17.00
2018-12-26T05:42:05.578Z,17.63
2018-12-26T05:44:34.363Z,21.67
2018-12-26T05:47:03.126Z,26.60
2018-12-26T05:49:31.864Z,18.50
2018-12-26T05:52:00.637Z,25.20
2018-12-26T05:54:29.392Z,16.93
2018-12-26T05:56:58.154Z,18.40
2018-12-26T05:59:26.930Z,18.17
2018-12-26T06:01:55.752Z,18.13
2018-12-26T06:04:24.623Z,17.13
2018-12-26T06:06:53.448Z,17.03
2018-12-26T06:09:22.276Z,16.30
2018-12-26T06:11:51.032Z,14.97
2018-12-26T06:14:19.878Z,15.07
2018-12-26T06:16:48.636Z,13.00
2018-12-26T06:19:17.392Z,13.63
2018-12-26T06:21:46.218Z,14.07
2018-12-26T06:24:15.074Z,14.53
2018-12-26T06:26:43.824Z,16.77
2018-12-26T06:29:12.600Z,15.30
2018-12-26T06:31:41.340Z,14.83
2018-12-26T06:34:10.082Z,14.47
2018-12-26T06:36:38.828Z,12.47
2018-12-26T06:39:08.191Z,12.40
2018-12-26T06:41:36.948Z,12.30
2018-12-26T06:44:05.730Z,11.07
2018-12-26T06:46:34.472Z,13.37
2018-12-26T06:49:03.208Z,13.13
2018-12-26T06:51:32.034Z,13.73
2018-12-26T06:54:00.771Z,10.50
2018-12-26T06:56:29.604Z,12.77
2018-12-26T06:58:58.344Z,9.97
2018-12-26T07:01:27.127Z,10.80
2018-12-26T07:03:55.890Z,12.27
2018-12-26T07:06:24.629Z,9.90
2018-12-26T07:08:53.396Z,12.03
2018-12-26T07:11:22.338Z,12.03
2018-12-26T07:13:51.147Z,10.43
2018-12-26T07:16:19.934Z,10.97
2018-12-26T07:18:48.704Z,11.77
2018-12-26T07:21:17.454Z,12.53
2018-12-26T07:23:46.292Z,9.90
2018-12-26T07:26:15.104Z,12.70
2018-12-26T07:28:44.133Z,12.57
2018-12-26T07:31:12.938Z,11.70
2018-12-26T07:33:41.735Z,10.97
2018-12-26T07:36:10.499Z,11.03
2018-12-26T07:38:39.345Z,10.83
2018-12-26T07:41:08.160Z,10.23
2018-12-26T07:43:36.912Z,7.93
2018-12-26T07:46:05.754Z,9.70
2018-12-26T07:48:34.536Z,9.20
2018-12-26T07:51:03.281Z,8.27
2018-12-26T07:53:32.024Z,8.67
2018-12-26T07:56:00.797Z,8.10
2018-12-26T07:58:29.533Z,8.27
2018-12-26T08:00:58.289Z,7.83
2018-12-26T08:03:27.039Z,7.63
2018-12-26T08:05:55.832Z,8.13
2018-12-26T08:08:24.591Z,8.20
2018-12-26T08:10:53.349Z,9.77
2018-12-26T08:13:22.116Z,7.73
2018-12-26T08:15:50.994Z,9.17
2018-12-26T08:18:19.749Z,7.00
2018-12-26T08:20:48.493Z,7.50
2018-12-26T08:23:17.254Z,7.67
2018-12-26T08:25:46.080Z,7.17
2018-12-26T08:28:14.836Z,9.70
2018-12-26T08:30:43.617Z,12.57
2018-12-26T08:33:12.489Z,8.80
2018-12-26T08:35:41.416Z,10.90
2018-12-26T08:38:10.236Z,7.13
2018-12-26T08:40:39.077Z,6.97
2018-12-26T08:43:07.855Z,6.60
2018-12-26T08:45:36.677Z,6.33
2018-12-26T08:48:05.439Z,7.83
2018-12-26T08:50:34.198Z,6.30
2018-12-26T08:53:03.074Z,6.40
2018-12-26T08:55:31.811Z,6.70
2018-12-26T08:58:00.593Z,6.03
2018-12-26T09:00:29.352Z,6.47
2018-12-26T09:02:58.742Z,6.77
2018-12-26T09:05:27.529Z,6.57
2018-12-26T09:07:56.370Z,6.90
2018-12-26T09:10:25.202Z,6.07
2018-12-26T09:12:54.044Z,6.27
2018-12-26T09:15:22.815Z,6.10
2018-12-26T09:17:51.598Z,5.80
2018-12-26T09:20:20.346Z,5.97
2018-12-26T09:22:49.114Z,5.50
2018-12-26T09:25:17.964Z,6.17
2018-12-26T09:27:46.877Z,5.80
2018-12-26T09:30:15.651Z,6.03
2018-12-26T09:32:44.502Z,5.30
2018-12-26T09:35:13.260Z,5.93
2018-12-26T09:37:43.440Z,5.83
2018-12-26T09:40:12.266Z,5.60
2018-12-26T09:42:41.107Z,7.37
2018-12-26T09:45:09.888Z,7.33
2018-12-26T09:47:38.663Z,13.70
2018-12-26T09:50:07.435Z,28.40
2018-12-26T09:52:36.196Z,19.40
2018-12-26T09:55:05.368Z,12.57
2018-12-26T09:57:34.145Z,10.57
2018-12-26T10:00:03.156Z,7.37
2018-12-26T10:02:32.164Z,8.07
2018-12-26T10:05:00.933Z,5.60
2018-12-26T10:07:29.712Z,10.60
2018-12-26T10:09:58.467Z,7.47
2018-12-26T10:12:27.336Z,6.03
2018-12-26T10:14:56.092Z,5.90
2018-12-26T10:17:24.861Z,5.53
2018-12-26T10:19:53.730Z,5.73
2018-12-26T10:22:22.498Z,5.77
2018-12-26T10:24:51.362Z,11.33
2018-12-26T10:27:22.467Z,10.83
2018-12-26T10:29:51.231Z,7.63
2018-12-26T10:32:20.002Z,7.77
2018-12-26T10:34:49.088Z,6.50
2018-12-26T10:37:17.992Z,8.50
2018-12-26T10:39:46.779Z,9.37
2018-12-26T10:42:15.547Z,5.07
2018-12-26T10:44:44.391Z,9.20
2018-12-26T10:47:13.288Z,4.63
2018-12-26T10:49:42.131Z,5.33
2018-12-26T10:52:10.974Z,4.83
2018-12-26T10:54:39.867Z,4.40
2018-12-26T10:57:08.695Z,4.13
2018-12-26T10:59:37.606Z,4.87
2018-12-26T11:02:06.583Z,5.03
2018-12-26T11:04:35.376Z,4.67
2018-12-26T11:07:04.131Z,4.97
2018-12-26T11:09:32.874Z,4.73
2018-12-26T11:12:01.680Z,4.40
2018-12-26T11:14:30.518Z,4.77
2018-12-26T11:16:59.576Z,5.53
2018-12-26T11:19:28.429Z,4.00
2018-12-26T11:21:57.230Z,4.40
2018-12-26T11:24:26.066Z,4.23
2018-12-26T11:26:54.826Z,4.37
2018-12-26T11:29:23.686Z,4.50
2018-12-26T11:31:52.506Z,4.13
2018-12-26T11:34:21.388Z,4.43
2018-12-26T11:36:50.168Z,4.33
2018-12-26T11:39:18.942Z,4.20
2018-12-26T11:41:47.806Z,4.87
2018-12-26T11:44:16.650Z,4.00
2018-12-26T11:46:45.424Z,4.50
2018-12-26T11:49:14.257Z,4.37
2018-12-26T11:51:43.036Z,4.23
2018-12-26T11:54:11.804Z,4.27
2018-12-26T11:56:40.549Z,4.47
2018-12-26T11:59:09.469Z,3.90
2018-12-26T12:01:38.255Z,4.17
2018-12-26T12:04:07.041Z,3.30
2018-12-26T12:06:35.822Z,4.17
2018-12-26T12:09:06.545Z,4.50
2018-12-26T12:11:35.296Z,3.60
2018-12-26T12:14:04.035Z,3.37
2018-12-26T12:16:32.876Z,3.50
2018-12-26T12:19:01.626Z,3.77
2018-12-26T12:21:30.406Z,3.83
2018-12-26T12:23:59.253Z,3.60
2018-12-26T12:26:28.457Z,3.47
2018-12-26T12:28:57.239Z,3.80
2018-12-26T12:31:25.975Z,4.33
2018-12-26T12:33:54.745Z,4.23
2018-12-26T12:36:23.493Z,4.57
2018-12-26T12:38:52.289Z,3.50
2018-12-26T12:41:21.051Z,3.87
2018-12-26T12:43:49.912Z,3.70
2018-12-26T12:46:18.673Z,4.27
2018-12-26T12:48:47.653Z,3.50
2018-12-26T12:51:16.713Z,3.60
2018-12-26T12:53:45.535Z,3.60
2018-12-26T12:56:14.507Z,3.60
2018-12-26T12:58:43.371Z,3.83
2018-12-26T13:01:12.226Z,3.50
2018-12-26T13:03:46.577Z,3.80
2018-12-26T13:06:12.036Z,3.83
2018-12-26T13:08:40.798Z,3.77
2018-12-26T13:11:09.656Z,3.67
2018-12-26T13:13:38.444Z,3.37
2018-12-26T13:16:07.192Z,3.30
2018-12-26T13:18:35.968Z,3.60
2018-12-26T13:21:04.941Z,3.70
2018-12-26T13:23:33.693Z,4.07
2018-12-26T13:26:02.509Z,3.33
2018-12-26T13:28:31.330Z,3.27
2018-12-26T13:31:05.140Z,3.23
2018-12-26T13:33:31.103Z,3.13
2018-12-26T13:35:59.906Z,3.13
2018-12-26T13:38:28.961Z,3.27
2018-12-26T13:40:57.846Z,3.40
2018-12-26T13:43:26.634Z,3.77
2018-12-26T13:45:55.418Z,3.17
2018-12-26T13:48:24.192Z,2.83
2018-12-26T13:50:52.983Z,3.40
2018-12-26T13:53:21.832Z,3.27
2018-12-26T13:55:50.600Z,2.73
2018-12-26T13:58:19.368Z,3.50
2018-12-26T14:00:48.212Z,3.23
2018-12-26T14:03:16.974Z,3.30
2018-12-26T14:05:45.878Z,3.07
2018-12-26T14:08:14.664Z,2.93
2018-12-26T14:10:43.503Z,3.20
2018-12-26T14:13:12.462Z,3.20
2018-12-26T14:15:41.488Z,3.00
2018-12-26T14:18:10.419Z,2.70
2018-12-26T14:20:39.228Z,2.83
2018-12-26T14:23:08.144Z,2.90
2018-12-26T14:25:36.954Z,3.07
2018-12-26T14:28:05.754Z,3.13
2018-12-26T14:30:34.630Z,3.40
2018-12-26T14:33:03.399Z,3.33
2018-12-26T14:35:32.260Z,3.03
2018-12-26T14:38:01.158Z,2.60
2018-12-26T14:40:30.008Z,2.93
2018-12-26T14:42:58.777Z,3.10
2018-12-26T14:45:27.557Z,2.90
2018-12-26T14:47:56.408Z,2.77
2018-12-26T14:50:25.265Z,2.87
2018-12-26T14:52:54.119Z,3.37
2018-12-26T14:55:23.044Z,3.03
2018-12-26T14:57:53.943Z,2.70
2018-12-26T15:00:22.646Z,2.90
2018-12-26T15:02:54.400Z,3.50
2018-12-26T15:05:23.192Z,3.17
2018-12-26T15:07:51.958Z,3.20
2018-12-26T15:10:20.750Z,3.00
2018-12-26T15:12:49.510Z,2.47
2018-12-26T15:15:18.406Z,3.10
2018-12-26T15:17:47.227Z,3.30
2018-12-26T15:20:16.063Z,3.47
2018-12-26T15:22:44.851Z,3.57
2018-12-26T15:25:13.848Z,3.17
2018-12-26T15:27:42.668Z,3.57
2018-12-26T15:30:11.451Z,3.17
2018-12-26T15:32:40.302Z,3.37
2018-12-26T15:35:09.156Z,3.43
2018-12-26T15:37:37.933Z,2.83
2018-12-26T15:40:08.418Z,3.33
2018-12-26T15:42:37.288Z,2.73
2018-12-26T15:45:06.261Z,3.20
2018-12-26T15:47:35.032Z,3.00
2018-12-26T15:50:03.912Z,3.07
2018-12-26T15:52:32.925Z,3.93
2018-12-26T15:55:01.763Z,3.07
2018-12-26T15:57:30.530Z,3.97
2018-12-26T15:59:59.316Z,3.63
2018-12-26T16:02:28.071Z,2.97
2018-12-26T16:04:56.900Z,3.00
2018-12-26T16:07:25.704Z,2.83
2018-12-26T16:09:54.447Z,3.43
2018-12-26T16:12:23.282Z,2.80
2018-12-26T16:14:52.060Z,3.00
2018-12-26T16:17:20.922Z,2.70
2018-12-26T16:19:49.707Z,3.07
2018-12-26T16:22:18.523Z,2.90
2018-12-26T16:24:48.271Z,3.27
2018-12-26T16:27:17.155Z,3.57
2018-12-26T16:29:47.105Z,3.40
2018-12-26T16:32:15.893Z,3.73
2018-12-26T16:34:44.650Z,3.77
2018-12-26T16:37:13.479Z,3.50
2018-12-26T16:39:42.339Z,3.17
2018-12-26T16:42:11.169Z,3.20
2018-12-26T16:44:40.117Z,3.60
2018-12-26T16:47:08.881Z,3.60
2018-12-26T16:49:37.652Z,3.53
2018-12-26T16:52:06.500Z,3.60
2018-12-26T16:54:35.391Z,3.37
2018-12-26T16:57:04.233Z,3.93
2018-12-26T16:59:33.021Z,3.70
2018-12-26T17:02:01.963Z,3.67
2018-12-26T17:04:30.895Z,3.90
2018-12-26T17:06:59.709Z,4.40
2018-12-26T17:09:28.663Z,3.63
2018-12-26T17:11:57.612Z,3.50
2018-12-26T17:14:26.490Z,3.93
2018-12-26T17:16:55.370Z,3.70
2018-12-26T17:19:24.266Z,3.90
2018-12-26T17:21:53.141Z,4.10
2018-12-26T17:24:22.064Z,3.90
2018-12-26T17:26:50.939Z,4.47
2018-12-26T17:29:19.804Z,4.17
2018-12-26T17:31:48.729Z,4.43
2018-12-26T17:34:17.565Z,3.93
2018-12-26T17:36:46.371Z,4.40
2018-12-26T17:39:15.243Z,4.30
2018-12-26T17:41:44.089Z,3.70
2018-12-26T17:44:12.956Z,4.40
2018-12-26T17:46:41.763Z,4.30
2018-12-26T17:49:10.694Z,4.67
2018-12-26T17:51:39.559Z,4.10
2018-12-26T17:54:36.807Z,4.20
2018-12-26T17:57:08.807Z,3.87
2018-12-26T18:00:31.274Z,3.50
2018-12-26T18:03:00.236Z,4.00
2018-12-26T18:05:29.147Z,4.37
2018-12-26T18:07:57.913Z,4.20
2018-12-26T18:10:26.713Z,3.77
2018-12-26T18:12:55.596Z,4.10
2018-12-26T18:15:24.454Z,4.53
2018-12-26T18:17:53.421Z,4.47
2018-12-26T18:20:22.202Z,4.07
2018-12-26T18:22:51.115Z,3.90
2018-12-26T18:25:20.077Z,4.40
2018-12-26T18:27:48.906Z,4.50
2018-12-26T18:30:17.873Z,4.67
2018-12-26T18:32:46.735Z,4.27
2018-12-26T18:35:15.687Z,4.17
2018-12-26T18:37:45.785Z,4.17
2018-12-26T18:40:14.822Z,3.73
2018-12-26T18:42:45.387Z,3.77
2018-12-26T18:45:15.937Z,3.53
2018-12-26T18:47:44.801Z,4.27
2018-12-26T18:50:14.017Z,3.97
2018-12-26T18:52:43.021Z,3.90
2018-12-26T18:55:11.989Z,3.40
2018-12-26T18:57:40.874Z,4.50
2018-12-26T19:00:11.878Z,4.07
2018-12-26T19:02:41.029Z,4.03
2018-12-26T19:05:11.081Z,4.10
2018-12-26T19:07:40.062Z,4.00
2018-12-26T19:10:10.585Z,3.93
2018-12-26T19:12:39.450Z,3.67
2018-12-26T19:15:09.206Z,3.77
2018-12-26T19:17:38.104Z,3.50
2018-12-26T19:20:08.951Z,4.00
2018-12-26T19:22:40.324Z,3.97
2018-12-26T19:25:09.474Z,3.73
2018-12-26T19:27:40.253Z,4.37
2018-12-26T19:30:13.875Z,4.07
2018-12-26T19:32:42.949Z,4.13
2018-12-26T19:35:14.018Z,3.60
2018-12-26T19:37:43.031Z,3.57
2018-12-26T19:40:12.008Z,3.90
2018-12-26T19:42:41.519Z,3.40
2018-12-26T19:45:10.679Z,3.73
2018-12-26T19:47:40.080Z,3.57
2018-12-26T19:50:09.734Z,4.00
2018-12-26T19:52:38.743Z,3.57
2018-12-26T19:55:09.457Z,3.83
2018-12-26T19:57:38.477Z,3.57
2018-12-26T20:00:08.244Z,3.53
2018-12-26T20:02:37.666Z,3.53
2018-12-26T20:05:07.046Z,3.60
2018-12-26T20:07:36.131Z,3.47
2018-12-26T20:10:06.173Z,3.43
2018-12-26T20:12:36.840Z,3.50
2018-12-26T20:15:06.173Z,3.50
2018-12-26T20:17:35.269Z,3.57
2018-12-26T20:20:04.863Z,3.40
2018-12-26T20:22:34.239Z,3.40
2018-12-26T20:25:03.595Z,3.50
2018-12-26T20:27:32.802Z,3.70
2018-12-26T20:30:02.094Z,3.70
2018-12-26T20:32:31.492Z,3.37
2018-12-26T20:35:01.375Z,3.30
2018-12-26T20:37:31.500Z,3.43
2018-12-26T20:40:01.376Z,3.23
2018-12-26T20:42:30.759Z,3.67
2018-12-26T20:45:00.684Z,3.40
2018-12-26T20:47:30.139Z,3.50
2018-12-26T20:50:00.297Z,3.20
2018-12-26T20:52:29.500Z,3.43
2018-12-26T20:54:59.301Z,3.80
2018-12-26T20:57:28.533Z,3.97
2018-12-26T20:59:57.969Z,3.40
2018-12-26T21:02:27.885Z,3.43
2018-12-26T21:05:00.469Z,3.40
2018-12-26T21:07:29.959Z,3.50
2018-12-26T21:09:59.571Z,3.47
2018-12-26T21:12:29.204Z,3.17
2018-12-26T21:15:00.084Z,3.30
2018-12-26T21:17:30.165Z,3.77
2018-12-26T21:19:59.508Z,3.47
2018-12-26T21:22:29.545Z,3.27
2018-12-26T21:24:58.688Z,3.30
2018-12-26T21:27:28.216Z,3.43
2018-12-26T21:29:57.452Z,3.53
2018-12-26T21:32:28.570Z,3.80
2018-12-26T21:34:58.015Z,3.87
2018-12-26T21:37:27.306Z,3.77
2018-12-26T21:39:56.572Z,3.37
2018-12-26T21:42:25.865Z,3.50
2018-12-26T21:44:54.953Z,3.60
2018-12-26T21:47:25.107Z,3.30
2018-12-26T21:49:54.283Z,3.87
2018-12-26T21:52:23.483Z,3.73
2018-12-26T21:54:52.907Z,3.60
2018-12-26T21:57:22.106Z,3.40
2018-12-26T21:59:51.274Z,3.57
2018-12-26T22:02:22.612Z,3.60
2018-12-26T22:04:51.271Z,3.60
2018-12-26T22:07:22.241Z,3.70
2018-12-26T22:09:51.432Z,3.77
2018-12-26T22:12:20.571Z,3.40
2018-12-26T22:14:50.006Z,3.70
2018-12-26T22:17:19.169Z,3.70
2018-12-26T22:19:48.621Z,3.67
2018-12-26T22:22:17.749Z,4.03
2018-12-26T22:24:47.064Z,3.70
2018-12-26T22:27:16.288Z,4.07
2018-12-26T22:29:46.523Z,3.50
2018-12-26T22:32:15.635Z,3.57
2018-12-26T22:34:44.941Z,3.57
2018-12-26T22:37:15.220Z,3.70
2018-12-26T22:39:44.442Z,3.90
2018-12-26T22:42:13.567Z,3.40
2018-12-26T22:44:42.880Z,3.67
2018-12-26T22:47:11.798Z,3.70
2018-12-26T22:49:40.820Z,3.70
2018-12-26T22:52:09.824Z,3.67
2018-12-26T22:54:38.700Z,3.80
2018-12-26T22:57:07.707Z,3.47
2018-12-26T22:59:36.640Z,3.37
2018-12-26T23:02:05.583Z,3.40
2018-12-26T23:04:34.548Z,3.40
2018-12-26T23:07:03.436Z,3.33
2018-12-26T23:09:32.453Z,3.70
2018-12-26T23:12:01.331Z,3.53
2018-12-26T23:14:31.434Z,3.87
2018-12-26T23:17:00.280Z,3.93
2018-12-26T23:19:29.118Z,3.67
2018-12-26T23:21:57.973Z,3.40
2018-12-26T23:24:26.774Z,3.70
2018-12-26T23:26:55.642Z,3.23
2018-12-26T23:29:24.596Z,3.90
2018-12-26T23:31:54.862Z,3.80
2018-12-26T23:34:23.787Z,3.63
2018-12-26T23:36:52.564Z,3.97
2018-12-26T23:39:21.307Z,3.50
2018-12-26T23:41:50.108Z,3.30
2018-12-26T23:44:18.856Z,3.67
2018-12-26T23:46:47.616Z,3.50
2018-12-26T23:49:16.505Z,3.83
2018-12-26T23:51:45.260Z,4.13
2018-12-26T23:54:14.034Z,3.77
2018-12-26T23:56:42.796Z,3.57
2018-12-26T23:59:11.660Z,3.80
